KMVN/MVN METAR and TAF weather

Enter ICAO airport designator
Station Type Date Time Source
KMVN METAR 2021/05/14 06:56 UTC NOAA

KMVN 140656Z AUTO 00000KT 10SM CLR 04/ A3032 RMK AO2 SLP274 T0044


Station Type Date Time Source
KMVN Decoded METAR 2021/05/14 06:56 UTC NOAA

Mount Vernon, Mount Vernon Airport, IL, United States (KMVN) 38-19N 088-52W
May 14, 2021 - 02:56 AM EDT / 2021.05.14 0656 UTC
Wind: Calm:0
Visibility: 10 mile(s):0
Sky conditions: clear
Temperature: 39 F (4 C)
Pressure (altimeter): 30.32 in. Hg (1026 hPa)
ob: KMVN 140656Z AUTO 00000KT 10SM CLR 04/ A3032 RMK AO2 SLP274 T0044
cycle: 7

Station Type Date Time Source
KMVN TAF 2021/05/14 06:21 UTC NOAA

TAF KMVN 140520Z 1406/1506 VRB02KT P6SM SKC
FM141500 15006KT P6SM FEW070 SCT200

Example: see airport list